sensor_id;sensor_type;location;lat;lon;timestamp;P1;durP1;ratioP1;P2;durP2;ratioP2
297;SDS011;133;49.626;9.680;2023-02-22T00:00:50;11.53;;;9.07;;
297;SDS011;133;49.626;9.680;2023-02-22T00:05:49;14.43;;;9.00;;
297;SDS011;133;49.626;9.680;2023-02-22T00:08:18;11.93;;;9.33;;
297;SDS011;133;49.626;9.680;2023-02-22T00:10:44;9.17;;;7.90;;
297;SDS011;133;49.626;9.680;2023-02-22T00:13:12;12.17;;;9.83;;
297;SDS011;133;49.626;9.680;2023-02-22T00:15:38;11.77;;;9.70;;
297;SDS011;133;49.626;9.680;2023-02-22T00:18:08;12.87;;;9.17;;
297;SDS011;133;49.626;9.680;2023-02-22T00:20:37;11.27;;;9.50;;
297;SDS011;133;49.626;9.680;2023-02-22T00:23:04;17.60;;;10.90;;
297;SDS011;133;49.626;9.680;2023-02-22T00:25:34;10.83;;;8.80;;
297;SDS011;133;49.626;9.680;2023-02-22T00:28:00;10.87;;;9.00;;
297;SDS011;133;49.626;9.680;2023-02-22T00:30:28;14.03;;;9.77;;
297;SDS011;133;49.626;9.680;2023-02-22T00:32:56;10.43;;;9.03;;
297;SDS011;133;49.626;9.680;2023-02-22T00:35:23;13.10;;;9.00;;
297;SDS011;133;49.626;9.680;2023-02-22T00:37:52;16.90;;;11.40;;
297;SDS011;133;49.626;9.680;2023-02-22T00:40:20;13.37;;;10.50;;
297;SDS011;133;49.626;9.680;2023-02-22T00:42:48;14.10;;;10.07;;
297;SDS011;133;49.626;9.680;2023-02-22T00:45:19;11.50;;;9.43;;
297;SDS011;133;49.626;9.680;2023-02-22T00:47:47;14.77;;;11.07;;
297;SDS011;133;49.626;9.680;2023-02-22T00:50:13;14.00;;;10.40;;
297;SDS011;133;49.626;9.680;2023-02-22T00:52:40;9.97;;;9.00;;
297;SDS011;133;49.626;9.680;2023-02-22T00:55:08;15.97;;;10.83;;
297;SDS011;133;49.626;9.680;2023-02-22T00:57:38;14.07;;;9.63;;
297;SDS011;133;49.626;9.680;2023-02-22T01:00:05;14.83;;;9.30;;
297;SDS011;133;49.626;9.680;2023-02-22T01:02:38;12.20;;;9.90;;
297;SDS011;133;49.626;9.680;2023-02-22T01:05:06;10.67;;;8.60;;
297;SDS011;133;49.626;9.680;2023-02-22T01:07:33;13.90;;;10.10;;
297;SDS011;133;49.626;9.680;2023-02-22T01:09:59;11.83;;;9.33;;
297;SDS011;133;49.626;9.680;2023-02-22T01:12:25;12.37;;;9.23;;
297;SDS011;133;49.626;9.680;2023-02-22T01:14:51;15.90;;;9.30;;
297;SDS011;133;49.626;9.680;2023-02-22T01:17:20;15.57;;;10.10;;
297;SDS011;133;49.626;9.680;2023-02-22T01:19:47;11.53;;;10.10;;
297;SDS011;133;49.626;9.680;2023-02-22T01:22:12;13.73;;;9.80;;
297;SDS011;133;49.626;9.680;2023-02-22T01:24:38;16.23;;;10.20;;
297;SDS011;133;49.626;9.680;2023-02-22T01:27:04;14.07;;;10.03;;
297;SDS011;133;49.626;9.680;2023-02-22T01:29:29;12.20;;;9.40;;
297;SDS011;133;49.626;9.680;2023-02-22T01:31:55;12.17;;;9.43;;
297;SDS011;133;49.626;9.680;2023-02-22T01:34:21;14.50;;;9.97;;
297;SDS011;133;49.626;9.680;2023-02-22T01:36:47;14.13;;;10.60;;
297;SDS011;133;49.626;9.680;2023-02-22T01:39:13;20.73;;;10.57;;
297;SDS011;133;49.626;9.680;2023-02-22T01:41:41;16.00;;;11.10;;
297;SDS011;133;49.626;9.680;2023-02-22T01:44:18;12.33;;;9.57;;
297;SDS011;133;49.626;9.680;2023-02-22T01:46:50;14.17;;;10.47;;
297;SDS011;133;49.626;9.680;2023-02-22T01:49:16;12.50;;;9.50;;
297;SDS011;133;49.626;9.680;2023-02-22T01:51:43;12.53;;;9.33;;
297;SDS011;133;49.626;9.680;2023-02-22T01:54:14;12.57;;;10.00;;
297;SDS011;133;49.626;9.680;2023-02-22T01:59:39;11.50;;;9.57;;
297;SDS011;133;49.626;9.680;2023-02-22T02:02:08;18.37;;;10.97;;
297;SDS011;133;49.626;9.680;2023-02-22T02:04:35;12.87;;;9.53;;
297;SDS011;133;49.626;9.680;2023-02-22T02:07:02;11.57;;;9.63;;
297;SDS011;133;49.626;9.680;2023-02-22T02:09:35;14.80;;;10.53;;
297;SDS011;133;49.626;9.680;2023-02-22T02:12:07;15.13;;;10.10;;
297;SDS011;133;49.626;9.680;2023-02-22T02:14:35;12.33;;;9.47;;
297;SDS011;133;49.626;9.680;2023-02-22T02:17:05;12.57;;;9.00;;
297;SDS011;133;49.626;9.680;2023-02-22T02:22:29;13.80;;;10.37;;
297;SDS011;133;49.626;9.680;2023-02-22T02:31:17;17.87;;;10.53;;
297;SDS011;133;49.626;9.680;2023-02-22T02:34:03;18.13;;;10.40;;
297;SDS011;133;49.626;9.680;2023-02-22T02:36:55;12.70;;;9.57;;
297;SDS011;133;49.626;9.680;2023-02-22T02:39:44;11.17;;;9.30;;
297;SDS011;133;49.626;9.680;2023-02-22T02:42:27;20.17;;;10.20;;
297;SDS011;133;49.626;9.680;2023-02-22T02:45:08;12.77;;;9.10;;
297;SDS011;133;49.626;9.680;2023-02-22T02:47:41;40.30;;;12.40;;
297;SDS011;133;49.626;9.680;2023-02-22T02:50:17;23.10;;;10.83;;
297;SDS011;133;49.626;9.680;2023-02-22T02:52:47;17.07;;;10.23;;
297;SDS011;133;49.626;9.680;2023-02-22T02:55:15;11.97;;;9.20;;
297;SDS011;133;49.626;9.680;2023-02-22T02:57:42;16.87;;;9.87;;
297;SDS011;133;49.626;9.680;2023-02-22T03:00:09;17.83;;;9.70;;
297;SDS011;133;49.626;9.680;2023-02-22T03:08:43;15.80;;;10.17;;
297;SDS011;133;49.626;9.680;2023-02-22T03:11:30;18.73;;;9.90;;
297;SDS011;133;49.626;9.680;2023-02-22T03:14:41;17.63;;;9.87;;
297;SDS011;133;49.626;9.680;2023-02-22T03:17:17;15.60;;;10.10;;
297;SDS011;133;49.626;9.680;2023-02-22T03:19:46;12.43;;;9.37;;
297;SDS011;133;49.626;9.680;2023-02-22T03:22:40;14.50;;;8.50;;
297;SDS011;133;49.626;9.680;2023-02-22T03:25:17;11.20;;;8.93;;
297;SDS011;133;49.626;9.680;2023-02-22T03:27:54;28.13;;;11.80;;
297;SDS011;133;49.626;9.680;2023-02-22T03:30:28;44.53;;;11.60;;
297;SDS011;133;49.626;9.680;2023-02-22T03:33:02;15.97;;;10.37;;
297;SDS011;133;49.626;9.680;2023-02-22T03:35:33;16.47;;;11.37;;
297;SDS011;133;49.626;9.680;2023-02-22T03:38:03;32.00;;;12.47;;
297;SDS011;133;49.626;9.680;2023-02-22T03:40:33;16.50;;;10.80;;
297;SDS011;133;49.626;9.680;2023-02-22T03:43:06;34.17;;;12.30;;
297;SDS011;133;49.626;9.680;2023-02-22T03:45:42;60.97;;;13.07;;
297;SDS011;133;49.626;9.680;2023-02-22T03:48:19;17.00;;;10.90;;
297;SDS011;133;49.626;9.680;2023-02-22T03:50:51;13.60;;;10.30;;
297;SDS011;133;49.626;9.680;2023-02-22T03:53:17;19.70;;;11.07;;
297;SDS011;133;49.626;9.680;2023-02-22T03:55:45;13.87;;;9.93;;
297;SDS011;133;49.626;9.680;2023-02-22T03:58:15;44.47;;;13.57;;
297;SDS011;133;49.626;9.680;2023-02-22T04:00:44;14.90;;;9.63;;
297;SDS011;133;49.626;9.680;2023-02-22T04:03:10;14.27;;;9.80;;
297;SDS011;133;49.626;9.680;2023-02-22T04:05:36;18.27;;;9.83;;
297;SDS011;133;49.626;9.680;2023-02-22T04:08:02;16.03;;;10.93;;
297;SDS011;133;49.626;9.680;2023-02-22T04:10:28;24.43;;;11.03;;
297;SDS011;133;49.626;9.680;2023-02-22T04:12:53;27.20;;;11.00;;
297;SDS011;133;49.626;9.680;2023-02-22T04:15:20;18.50;;;11.50;;
297;SDS011;133;49.626;9.680;2023-02-22T04:17:47;39.23;;;11.30;;
297;SDS011;133;49.626;9.680;2023-02-22T04:20:13;19.77;;;11.20;;
297;SDS011;133;49.626;9.680;2023-02-22T04:22:43;23.30;;;11.53;;
297;SDS011;133;49.626;9.680;2023-02-22T04:25:10;15.27;;;10.27;;
297;SDS011;133;49.626;9.680;2023-02-22T04:27:35;14.73;;;9.17;;
297;SDS011;133;49.626;9.680;2023-02-22T04:30:01;15.63;;;10.10;;
297;SDS011;133;49.626;9.680;2023-02-22T04:32:27;13.93;;;9.47;;
297;SDS011;133;49.626;9.680;2023-02-22T04:34:53;19.43;;;9.83;;
297;SDS011;133;49.626;9.680;2023-02-22T04:37:18;16.13;;;9.50;;
297;SDS011;133;49.626;9.680;2023-02-22T04:39:44;36.77;;;10.30;;
297;SDS011;133;49.626;9.680;2023-02-22T04:42:09;24.70;;;11.30;;
297;SDS011;133;49.626;9.680;2023-02-22T04:44:35;17.50;;;10.77;;
297;SDS011;133;49.626;9.680;2023-02-22T04:47:00;16.80;;;10.10;;
297;SDS011;133;49.626;9.680;2023-02-22T04:49:26;16.37;;;10.10;;
297;SDS011;133;49.626;9.680;2023-02-22T04:51:52;31.23;;;10.67;;
297;SDS011;133;49.626;9.680;2023-02-22T04:54:17;21.83;;;10.60;;
297;SDS011;133;49.626;9.680;2023-02-22T04:56:43;30.90;;;11.30;;
297;SDS011;133;49.626;9.680;2023-02-22T04:59:09;21.43;;;10.90;;
297;SDS011;133;49.626;9.680;2023-02-22T05:01:35;19.73;;;10.47;;
297;SDS011;133;49.626;9.680;2023-02-22T05:04:02;44.13;;;12.10;;
297;SDS011;133;49.626;9.680;2023-02-22T05:06:31;19.33;;;10.30;;
297;SDS011;133;49.626;9.680;2023-02-22T05:08:57;18.87;;;10.37;;
297;SDS011;133;49.626;9.680;2023-02-22T05:11:23;18.53;;;10.20;;
297;SDS011;133;49.626;9.680;2023-02-22T05:13:48;13.03;;;9.77;;
297;SDS011;133;49.626;9.680;2023-02-22T05:16:14;42.23;;;11.50;;
297;SDS011;133;49.626;9.680;2023-02-22T05:18:40;28.27;;;10.30;;
297;SDS011;133;49.626;9.680;2023-02-22T05:21:06;63.53;;;12.97;;
297;SDS011;133;49.626;9.680;2023-02-22T05:23:32;15.50;;;9.60;;
297;SDS011;133;49.626;9.680;2023-02-22T05:25:58;25.07;;;11.33;;
297;SDS011;133;49.626;9.680;2023-02-22T05:28:24;14.00;;;9.87;;
297;SDS011;133;49.626;9.680;2023-02-22T05:30:50;59.27;;;13.20;;
297;SDS011;133;49.626;9.680;2023-02-22T05:33:15;29.53;;;11.93;;
297;SDS011;133;49.626;9.680;2023-02-22T05:35:41;14.60;;;11.43;;
297;SDS011;133;49.626;9.680;2023-02-22T05:38:09;12.93;;;10.37;;
297;SDS011;133;49.626;9.680;2023-02-22T05:40:38;17.40;;;12.43;;
297;SDS011;133;49.626;9.680;2023-02-22T05:43:05;16.37;;;11.80;;
297;SDS011;133;49.626;9.680;2023-02-22T05:45:30;33.70;;;13.50;;
297;SDS011;133;49.626;9.680;2023-02-22T05:47:56;194.87;;;22.57;;
297;SDS011;133;49.626;9.680;2023-02-22T05:50:22;15.30;;;11.30;;
297;SDS011;133;49.626;9.680;2023-02-22T05:52:48;14.70;;;10.80;;
297;SDS011;133;49.626;9.680;2023-02-22T05:55:15;37.80;;;12.57;;
297;SDS011;133;49.626;9.680;2023-02-22T05:57:43;20.13;;;10.50;;
297;SDS011;133;49.626;9.680;2023-02-22T06:00:09;15.83;;;11.23;;
297;SDS011;133;49.626;9.680;2023-02-22T06:02:39;13.70;;;10.53;;
297;SDS011;133;49.626;9.680;2023-02-22T06:05:05;15.43;;;10.30;;
297;SDS011;133;49.626;9.680;2023-02-22T06:07:31;29.90;;;10.77;;
297;SDS011;133;49.626;9.680;2023-02-22T06:09:56;38.47;;;13.43;;
297;SDS011;133;49.626;9.680;2023-02-22T06:12:22;51.77;;;11.97;;
297;SDS011;133;49.626;9.680;2023-02-22T06:14:48;20.83;;;11.80;;
297;SDS011;133;49.626;9.680;2023-02-22T06:17:13;15.10;;;10.97;;
297;SDS011;133;49.626;9.680;2023-02-22T06:19:39;22.33;;;11.97;;
297;SDS011;133;49.626;9.680;2023-02-22T06:22:05;13.23;;;9.60;;
297;SDS011;133;49.626;9.680;2023-02-22T06:24:31;12.90;;;9.47;;
297;SDS011;133;49.626;9.680;2023-02-22T06:26:58;16.73;;;10.37;;
297;SDS011;133;49.626;9.680;2023-02-22T06:29:27;13.80;;;10.17;;
297;SDS011;133;49.626;9.680;2023-02-22T06:31:53;15.50;;;10.30;;
297;SDS011;133;49.626;9.680;2023-02-22T06:34:19;32.50;;;11.27;;
297;SDS011;133;49.626;9.680;2023-02-22T06:36:46;27.93;;;12.90;;
297;SDS011;133;49.626;9.680;2023-02-22T06:39:13;18.37;;;12.03;;
297;SDS011;133;49.626;9.680;2023-02-22T06:41:43;19.23;;;12.07;;
297;SDS011;133;49.626;9.680;2023-02-22T06:44:09;15.40;;;11.67;;
297;SDS011;133;49.626;9.680;2023-02-22T06:46:36;25.23;;;11.70;;
297;SDS011;133;49.626;9.680;2023-02-22T06:49:02;14.67;;;10.07;;
297;SDS011;133;49.626;9.680;2023-02-22T06:51:29;14.67;;;10.83;;
297;SDS011;133;49.626;9.680;2023-02-22T06:53:59;15.80;;;11.43;;
297;SDS011;133;49.626;9.680;2023-02-22T06:56:25;45.57;;;14.67;;
297;SDS011;133;49.626;9.680;2023-02-22T06:58:50;14.37;;;11.20;;
297;SDS011;133;49.626;9.680;2023-02-22T07:01:16;39.97;;;13.00;;
297;SDS011;133;49.626;9.680;2023-02-22T07:03:42;14.27;;;10.00;;
297;SDS011;133;49.626;9.680;2023-02-22T07:06:07;15.67;;;10.30;;
297;SDS011;133;49.626;9.680;2023-02-22T07:08:34;14.40;;;10.17;;
297;SDS011;133;49.626;9.680;2023-02-22T07:11:00;12.90;;;9.33;;
297;SDS011;133;49.626;9.680;2023-02-22T07:13:26;43.07;;;12.00;;
297;SDS011;133;49.626;9.680;2023-02-22T07:15:51;15.50;;;11.77;;
297;SDS011;133;49.626;9.680;2023-02-22T07:18:17;13.07;;;10.27;;
297;SDS011;133;49.626;9.680;2023-02-22T07:20:43;16.47;;;11.17;;
297;SDS011;133;49.626;9.680;2023-02-22T07:23:08;21.77;;;13.17;;
297;SDS011;133;49.626;9.680;2023-02-22T07:25:37;35.37;;;15.47;;
297;SDS011;133;49.626;9.680;2023-02-22T07:28:03;76.43;;;17.43;;
297;SDS011;133;49.626;9.680;2023-02-22T07:30:29;12.23;;;9.70;;
297;SDS011;133;49.626;9.680;2023-02-22T07:32:59;11.63;;;9.70;;
297;SDS011;133;49.626;9.680;2023-02-22T07:35:28;16.57;;;11.60;;
297;SDS011;133;49.626;9.680;2023-02-22T07:37:55;13.57;;;10.40;;
297;SDS011;133;49.626;9.680;2023-02-22T07:40:21;11.33;;;9.53;;
297;SDS011;133;49.626;9.680;2023-02-22T07:45:34;13.33;;;10.73;;
297;SDS011;133;49.626;9.680;2023-02-22T07:48:00;35.30;;;12.90;;
297;SDS011;133;49.626;9.680;2023-02-22T07:50:28;21.80;;;12.90;;
297;SDS011;133;49.626;9.680;2023-02-22T07:52:56;26.00;;;13.03;;
297;SDS011;133;49.626;9.680;2023-02-22T07:55:25;15.50;;;10.70;;
297;SDS011;133;49.626;9.680;2023-02-22T07:57:52;14.30;;;9.40;;
297;SDS011;133;49.626;9.680;2023-02-22T08:00:24;80.97;;;14.00;;
297;SDS011;133;49.626;9.680;2023-02-22T08:02:52;16.83;;;10.27;;
297;SDS011;133;49.626;9.680;2023-02-22T08:05:18;38.47;;;9.93;;
297;SDS011;133;49.626;9.680;2023-02-22T08:07:44;36.57;;;11.53;;
297;SDS011;133;49.626;9.680;2023-02-22T08:10:11;14.43;;;10.17;;
297;SDS011;133;49.626;9.680;2023-02-22T08:12:38;29.13;;;11.20;;
297;SDS011;133;49.626;9.680;2023-02-22T08:15:04;32.00;;;11.90;;
297;SDS011;133;49.626;9.680;2023-02-22T08:17:32;14.20;;;10.70;;
297;SDS011;133;49.626;9.680;2023-02-22T08:19:57;14.50;;;10.80;;
297;SDS011;133;49.626;9.680;2023-02-22T08:22:23;20.93;;;12.60;;
297;SDS011;133;49.626;9.680;2023-02-22T08:24:51;11.00;;;9.67;;
297;SDS011;133;49.626;9.680;2023-02-22T08:27:27;12.70;;;10.10;;
297;SDS011;133;49.626;9.680;2023-02-22T08:29:54;14.47;;;11.53;;
297;SDS011;133;49.626;9.680;2023-02-22T08:32:20;15.33;;;12.30;;
297;SDS011;133;49.626;9.680;2023-02-22T08:34:47;27.57;;;12.40;;
297;SDS011;133;49.626;9.680;2023-02-22T08:37:13;14.77;;;11.50;;
297;SDS011;133;49.626;9.680;2023-02-22T08:39:40;16.90;;;11.73;;
297;SDS011;133;49.626;9.680;2023-02-22T08:42:06;23.53;;;13.10;;
297;SDS011;133;49.626;9.680;2023-02-22T08:44:33;16.63;;;12.70;;
297;SDS011;133;49.626;9.680;2023-02-22T08:46:59;18.87;;;12.50;;
297;SDS011;133;49.626;9.680;2023-02-22T08:49:25;17.43;;;12.80;;
297;SDS011;133;49.626;9.680;2023-02-22T08:51:50;16.90;;;12.47;;
297;SDS011;133;49.626;9.680;2023-02-22T08:54:16;16.57;;;12.10;;
297;SDS011;133;49.626;9.680;2023-02-22T08:56:42;18.40;;;12.30;;
297;SDS011;133;49.626;9.680;2023-02-22T08:59:08;18.43;;;13.53;;
297;SDS011;133;49.626;9.680;2023-02-22T09:01:34;18.23;;;13.27;;
297;SDS011;133;49.626;9.680;2023-02-22T09:04:00;24.83;;;15.30;;
297;SDS011;133;49.626;9.680;2023-02-22T09:06:26;15.93;;;12.43;;
297;SDS011;133;49.626;9.680;2023-02-22T09:08:52;13.37;;;10.93;;
297;SDS011;133;49.626;9.680;2023-02-22T09:11:18;14.90;;;11.80;;
297;SDS011;133;49.626;9.680;2023-02-22T09:13:43;14.70;;;11.77;;
297;SDS011;133;49.626;9.680;2023-02-22T09:16:09;14.00;;;10.70;;
297;SDS011;133;49.626;9.680;2023-02-22T09:18:35;16.57;;;12.90;;
297;SDS011;133;49.626;9.680;2023-02-22T09:21:01;17.40;;;12.80;;
297;SDS011;133;49.626;9.680;2023-02-22T09:23:27;23.77;;;12.20;;
297;SDS011;133;49.626;9.680;2023-02-22T09:25:54;14.43;;;10.60;;
297;SDS011;133;49.626;9.680;2023-02-22T09:28:20;28.30;;;13.33;;
297;SDS011;133;49.626;9.680;2023-02-22T09:30:46;17.17;;;12.60;;
297;SDS011;133;49.626;9.680;2023-02-22T09:33:13;20.73;;;14.47;;
297;SDS011;133;49.626;9.680;2023-02-22T09:35:41;135.27;;;25.00;;
297;SDS011;133;49.626;9.680;2023-02-22T09:38:10;24.27;;;16.13;;
297;SDS011;133;49.626;9.680;2023-02-22T09:40:39;21.03;;;14.53;;
297;SDS011;133;49.626;9.680;2023-02-22T09:51:41;17.13;;;13.47;;
297;SDS011;133;49.626;9.680;2023-02-22T09:54:17;22.23;;;15.10;;
297;SDS011;133;49.626;9.680;2023-02-22T09:56:58;29.70;;;17.13;;
297;SDS011;133;49.626;9.680;2023-02-22T09:59:36;33.83;;;15.90;;
297;SDS011;133;49.626;9.680;2023-02-22T10:04:59;19.70;;;15.03;;
297;SDS011;133;49.626;9.680;2023-02-22T10:10:03;19.43;;;13.57;;
297;SDS011;133;49.626;9.680;2023-02-22T10:12:48;20.77;;;14.03;;
297;SDS011;133;49.626;9.680;2023-02-22T10:15:27;17.97;;;12.83;;
297;SDS011;133;49.626;9.680;2023-02-22T10:21:00;19.43;;;13.50;;
297;SDS011;133;49.626;9.680;2023-02-22T10:26:47;15.50;;;12.80;;
297;SDS011;133;49.626;9.680;2023-02-22T10:29:31;12.80;;;11.70;;
297;SDS011;133;49.626;9.680;2023-02-22T10:32:05;21.43;;;13.77;;
297;SDS011;133;49.626;9.680;2023-02-22T10:34:32;19.27;;;13.70;;
297;SDS011;133;49.626;9.680;2023-02-22T10:37:29;17.00;;;12.87;;
297;SDS011;133;49.626;9.680;2023-02-22T10:42:42;17.47;;;13.57;;
297;SDS011;133;49.626;9.680;2023-02-22T10:45:20;19.20;;;14.33;;
297;SDS011;133;49.626;9.680;2023-02-22T10:47:53;15.47;;;13.13;;
297;SDS011;133;49.626;9.680;2023-02-22T10:50:23;14.67;;;12.43;;
297;SDS011;133;49.626;9.680;2023-02-22T10:52:50;13.93;;;11.77;;
297;SDS011;133;49.626;9.680;2023-02-22T10:55:16;15.00;;;12.13;;
297;SDS011;133;49.626;9.680;2023-02-22T10:57:45;16.60;;;13.60;;
297;SDS011;133;49.626;9.680;2023-02-22T11:02:55;18.23;;;13.50;;
297;SDS011;133;49.626;9.680;2023-02-22T11:10:46;18.60;;;12.60;;
297;SDS011;133;49.626;9.680;2023-02-22T11:13:32;18.50;;;14.67;;
297;SDS011;133;49.626;9.680;2023-02-22T11:16:24;15.77;;;13.20;;
297;SDS011;133;49.626;9.680;2023-02-22T11:18:58;17.80;;;13.57;;
297;SDS011;133;49.626;9.680;2023-02-22T11:21:25;16.97;;;14.10;;
297;SDS011;133;49.626;9.680;2023-02-22T11:24:01;14.07;;;12.20;;
297;SDS011;133;49.626;9.680;2023-02-22T11:26:31;14.93;;;12.83;;
297;SDS011;133;49.626;9.680;2023-02-22T11:29:09;14.13;;;12.70;;
297;SDS011;133;49.626;9.680;2023-02-22T11:31:44;15.60;;;12.10;;
297;SDS011;133;49.626;9.680;2023-02-22T11:34:30;14.87;;;11.43;;
297;SDS011;133;49.626;9.680;2023-02-22T11:39:41;12.27;;;10.70;;
297;SDS011;133;49.626;9.680;2023-02-22T11:42:24;13.67;;;11.17;;
297;SDS011;133;49.626;9.680;2023-02-22T11:56:16;12.93;;;10.70;;
297;SDS011;133;49.626;9.680;2023-02-22T12:01:57;11.80;;;11.20;;
297;SDS011;133;49.626;9.680;2023-02-22T12:07:25;11.50;;;10.60;;
297;SDS011;133;49.626;9.680;2023-02-22T12:13:16;12.97;;;11.37;;
297;SDS011;133;49.626;9.680;2023-02-22T12:21:23;13.53;;;11.93;;
297;SDS011;133;49.626;9.680;2023-02-22T12:27:08;10.73;;;10.07;;
297;SDS011;133;49.626;9.680;2023-02-22T12:29:43;14.87;;;11.30;;
297;SDS011;133;49.626;9.680;2023-02-22T12:35:01;14.10;;;9.93;;
297;SDS011;133;49.626;9.680;2023-02-22T12:37:38;9.93;;;9.43;;
297;SDS011;133;49.626;9.680;2023-02-22T12:40:29;10.33;;;9.83;;
297;SDS011;133;49.626;9.680;2023-02-22T12:48:42;10.83;;;10.20;;
297;SDS011;133;49.626;9.680;2023-02-22T12:54:15;10.83;;;9.70;;
297;SDS011;133;49.626;9.680;2023-02-22T12:56:47;12.70;;;10.10;;
297;SDS011;133;49.626;9.680;2023-02-22T12:59:21;11.13;;;10.37;;
297;SDS011;133;49.626;9.680;2023-02-22T13:04:56;12.63;;;10.03;;
297;SDS011;133;49.626;9.680;2023-02-22T13:19:37;11.67;;;10.10;;
297;SDS011;133;49.626;9.680;2023-02-22T13:25:21;10.80;;;8.33;;
297;SDS011;133;49.626;9.680;2023-02-22T13:28:30;10.70;;;9.27;;
297;SDS011;133;49.626;9.680;2023-02-22T13:33:59;11.60;;;9.47;;
297;SDS011;133;49.626;9.680;2023-02-22T13:36:37;12.70;;;10.13;;
297;SDS011;133;49.626;9.680;2023-02-22T13:39:18;12.17;;;8.97;;
297;SDS011;133;49.626;9.680;2023-02-22T13:45:06;9.83;;;9.33;;
297;SDS011;133;49.626;9.680;2023-02-22T13:48:56;12.47;;;9.27;;
297;SDS011;133;49.626;9.680;2023-02-22T13:51:12;9.40;;;8.37;;
297;SDS011;133;49.626;9.680;2023-02-22T13:53:54;10.70;;;9.00;;
297;SDS011;133;49.626;9.680;2023-02-22T13:56:51;12.63;;;8.57;;
297;SDS011;133;49.626;9.680;2023-02-22T13:59:33;9.23;;;8.57;;
297;SDS011;133;49.626;9.680;2023-02-22T14:02:04;7.63;;;7.20;;
297;SDS011;133;49.626;9.680;2023-02-22T14:07:45;9.17;;;7.37;;
297;SDS011;133;49.626;9.680;2023-02-22T14:17:40;14.07;;;7.53;;
297;SDS011;133;49.626;9.680;2023-02-22T14:22:48;9.87;;;7.90;;
297;SDS011;133;49.626;9.680;2023-02-22T14:28:01;10.63;;;8.33;;
297;SDS011;133;49.626;9.680;2023-02-22T14:30:33;10.30;;;8.23;;
297;SDS011;133;49.626;9.680;2023-02-22T14:33:01;8.90;;;7.00;;
297;SDS011;133;49.626;9.680;2023-02-22T14:35:30;10.73;;;7.53;;
297;SDS011;133;49.626;9.680;2023-02-22T14:38:05;8.77;;;7.47;;
297;SDS011;133;49.626;9.680;2023-02-22T14:40:42;10.80;;;7.90;;
297;SDS011;133;49.626;9.680;2023-02-22T14:45:54;11.47;;;7.00;;
297;SDS011;133;49.626;9.680;2023-02-22T14:51:18;9.97;;;7.53;;
297;SDS011;133;49.626;9.680;2023-02-22T14:53:48;7.13;;;6.77;;
297;SDS011;133;49.626;9.680;2023-02-22T14:56:21;10.60;;;6.73;;
297;SDS011;133;49.626;9.680;2023-02-22T14:58:52;8.40;;;6.67;;
297;SDS011;133;49.626;9.680;2023-02-22T15:01:35;7.87;;;6.47;;
297;SDS011;133;49.626;9.680;2023-02-22T15:06:51;13.07;;;8.10;;
297;SDS011;133;49.626;9.680;2023-02-22T15:09:20;12.33;;;8.23;;
297;SDS011;133;49.626;9.680;2023-02-22T15:11:51;11.40;;;8.33;;
297;SDS011;133;49.626;9.680;2023-02-22T15:14:23;8.97;;;7.60;;
297;SDS011;133;49.626;9.680;2023-02-22T15:16:56;9.63;;;7.83;;
297;SDS011;133;49.626;9.680;2023-02-22T15:19:29;9.50;;;8.10;;
297;SDS011;133;49.626;9.680;2023-02-22T15:21:56;10.00;;;7.37;;
297;SDS011;133;49.626;9.680;2023-02-22T15:24:25;10.07;;;7.53;;
297;SDS011;133;49.626;9.680;2023-02-22T15:26:53;9.83;;;7.80;;
297;SDS011;133;49.626;9.680;2023-02-22T15:29:21;10.10;;;7.53;;
297;SDS011;133;49.626;9.680;2023-02-22T15:31:58;10.87;;;7.70;;
297;SDS011;133;49.626;9.680;2023-02-22T15:34:33;10.37;;;7.47;;
297;SDS011;133;49.626;9.680;2023-02-22T15:37:13;10.30;;;7.37;;
297;SDS011;133;49.626;9.680;2023-02-22T15:39:49;13.23;;;7.70;;
297;SDS011;133;49.626;9.680;2023-02-22T15:42:23;10.27;;;7.47;;
297;SDS011;133;49.626;9.680;2023-02-22T15:44:51;8.40;;;6.73;;
297;SDS011;133;49.626;9.680;2023-02-22T15:47:22;9.03;;;6.23;;
297;SDS011;133;49.626;9.680;2023-02-22T15:52:48;7.80;;;6.53;;
297;SDS011;133;49.626;9.680;2023-02-22T15:55:23;7.30;;;5.93;;
297;SDS011;133;49.626;9.680;2023-02-22T15:58:09;7.23;;;5.73;;
297;SDS011;133;49.626;9.680;2023-02-22T16:00:42;12.60;;;7.40;;
297;SDS011;133;49.626;9.680;2023-02-22T16:03:11;8.67;;;6.90;;
297;SDS011;133;49.626;9.680;2023-02-22T16:05:44;7.80;;;6.23;;
297;SDS011;133;49.626;9.680;2023-02-22T16:11:06;12.10;;;7.97;;
297;SDS011;133;49.626;9.680;2023-02-22T16:14:22;10.10;;;7.67;;
297;SDS011;133;49.626;9.680;2023-02-22T16:17:08;10.63;;;6.87;;
297;SDS011;133;49.626;9.680;2023-02-22T16:19:43;11.20;;;7.40;;
297;SDS011;133;49.626;9.680;2023-02-22T16:22:23;10.63;;;8.60;;
297;SDS011;133;49.626;9.680;2023-02-22T16:25:10;15.97;;;10.83;;
297;SDS011;133;49.626;9.680;2023-02-22T16:27:46;11.57;;;9.57;;
297;SDS011;133;49.626;9.680;2023-02-22T16:32:45;15.13;;;8.30;;
297;SDS011;133;49.626;9.680;2023-02-22T16:35:12;14.60;;;9.57;;
297;SDS011;133;49.626;9.680;2023-02-22T16:37:47;15.73;;;12.40;;
297;SDS011;133;49.626;9.680;2023-02-22T16:40:22;14.87;;;10.80;;
297;SDS011;133;49.626;9.680;2023-02-22T16:42:48;11.73;;;7.77;;
297;SDS011;133;49.626;9.680;2023-02-22T16:45:17;7.63;;;6.40;;
297;SDS011;133;49.626;9.680;2023-02-22T16:47:44;7.87;;;6.00;;
297;SDS011;133;49.626;9.680;2023-02-22T16:50:10;6.10;;;5.30;;
297;SDS011;133;49.626;9.680;2023-02-22T16:52:39;6.60;;;5.00;;
297;SDS011;133;49.626;9.680;2023-02-22T16:55:08;5.80;;;4.80;;
297;SDS011;133;49.626;9.680;2023-02-22T16:57:37;5.27;;;4.97;;
297;SDS011;133;49.626;9.680;2023-02-22T17:00:06;5.00;;;4.80;;
297;SDS011;133;49.626;9.680;2023-02-22T17:02:37;6.83;;;4.57;;
297;SDS011;133;49.626;9.680;2023-02-22T17:05:03;5.87;;;4.50;;
297;SDS011;133;49.626;9.680;2023-02-22T17:07:32;8.73;;;5.17;;
297;SDS011;133;49.626;9.680;2023-02-22T17:09:58;42.47;;;22.97;;
297;SDS011;133;49.626;9.680;2023-02-22T17:12:27;26.90;;;14.27;;
297;SDS011;133;49.626;9.680;2023-02-22T17:14:54;22.27;;;11.83;;
297;SDS011;133;49.626;9.680;2023-02-22T17:17:19;15.50;;;10.97;;
297;SDS011;133;49.626;9.680;2023-02-22T17:19:45;13.63;;;9.10;;
297;SDS011;133;49.626;9.680;2023-02-22T17:22:20;7.83;;;5.70;;
297;SDS011;133;49.626;9.680;2023-02-22T17:24:46;10.43;;;5.17;;
297;SDS011;133;49.626;9.680;2023-02-22T17:27:12;6.00;;;4.40;;
297;SDS011;133;49.626;9.680;2023-02-22T17:29:38;6.40;;;4.63;;
297;SDS011;133;49.626;9.680;2023-02-22T17:32:05;4.60;;;4.30;;
297;SDS011;133;49.626;9.680;2023-02-22T17:34:31;7.27;;;4.93;;
297;SDS011;133;49.626;9.680;2023-02-22T17:36:57;5.60;;;5.37;;
297;SDS011;133;49.626;9.680;2023-02-22T17:39:23;5.27;;;4.77;;
297;SDS011;133;49.626;9.680;2023-02-22T17:41:51;7.60;;;5.70;;
297;SDS011;133;49.626;9.680;2023-02-22T17:44:21;6.80;;;5.20;;
297;SDS011;133;49.626;9.680;2023-02-22T17:46:48;4.90;;;4.60;;
297;SDS011;133;49.626;9.680;2023-02-22T17:49:14;6.97;;;4.90;;
297;SDS011;133;49.626;9.680;2023-02-22T17:51:40;6.20;;;5.10;;
297;SDS011;133;49.626;9.680;2023-02-22T17:54:06;6.93;;;5.20;;
297;SDS011;133;49.626;9.680;2023-02-22T17:56:32;8.23;;;5.23;;
297;SDS011;133;49.626;9.680;2023-02-22T17:58:57;7.73;;;5.20;;
297;SDS011;133;49.626;9.680;2023-02-22T18:01:29;6.07;;;5.07;;
297;SDS011;133;49.626;9.680;2023-02-22T18:03:57;7.23;;;5.60;;
297;SDS011;133;49.626;9.680;2023-02-22T18:06:25;4.70;;;4.40;;
297;SDS011;133;49.626;9.680;2023-02-22T18:08:54;7.47;;;5.10;;
297;SDS011;133;49.626;9.680;2023-02-22T18:11:21;5.73;;;4.90;;
297;SDS011;133;49.626;9.680;2023-02-22T18:13:51;5.37;;;5.07;;
297;SDS011;133;49.626;9.680;2023-02-22T18:16:18;6.07;;;5.07;;
297;SDS011;133;49.626;9.680;2023-02-22T18:18:43;8.33;;;5.30;;